Terminal Aerodrome Forecast
Issued by NWS Green Bay, WI

Home | Current Version | Previous Version | Graphics & Text | Print | Product List | Glossary On
Versions: 1 2 3 4 5 6 7 8 9 10 11 12 13 14 15 16 17 18 19 20 21 22 23 24 25 26 27 28 29 30 31 32 33 34 35 36 37 38
000
FTUS43 KGRB 251414 AAA
TAFGRB
TAF AMD
KGRB 251414Z 2514/2612 16012G20KT P6SM VCSH BKN028
      TEMPO 2514/2517 5SM SHRA BKN018
     FM251800 23018G32KT P6SM BKN035
     FM260000 22012G23KT P6SM VCSH BKN040
      TEMPO 2600/2603 3SM -SHRA BKN028
     FM260300 21008KT 5SM HZ SCT040 BKN100
      TEMPO 2608/2612 3SM BR=

USA.gov is the U.S. government's official web portal to all federal, state and local government web resources and services.